Terminal Aerodrome Forecast
Issued by NWS Cleveland, OH

Home | Current Version | Previous Version | Text Only | Print | Product List | Glossary Off
Versions: 1 2 3 4 5 6 7 8 9 10 11 12 13 14 15

000
FTUS41 KCLE 261424 AAA
TAFMFD
TAF AMD
KMFD 261424Z 2614/2712 18010KT P6SM OVC018
     FM261600 20010KT P6SM SCT025 BKN250
     FM262200 20010KT P6SM VCSH SCT050 BKN100
     FM270200 17005KT P6SM BKN050
     FM270800 19003KT 4SM BR BKN250=

USA.gov is the U.S. government's official web portal to all federal, state and local government web resources and services.